createdAt,value
2023-05-13T00:00:00.577Z,10.8
2023-05-13T00:04:00.558Z,10.6
2023-05-13T00:08:00.565Z,10.7
2023-05-13T00:12:00.554Z,10.7
2023-05-13T00:16:00.621Z,10.7
2023-05-13T00:20:00.548Z,10.5
2023-05-13T00:24:00.575Z,10.3
2023-05-13T00:28:00.564Z,10.2
2023-05-13T00:32:00.641Z,10.2
2023-05-13T00:36:00.595Z,10.4
2023-05-13T00:40:00.654Z,10.5
2023-05-13T00:44:00.531Z,10.5
2023-05-13T00:48:00.621Z,10.1
2023-05-13T00:52:00.561Z,9.9
2023-05-13T00:56:00.562Z,9.8
2023-05-13T01:00:00.536Z,9.9
2023-05-13T01:04:00.586Z,9.7
2023-05-13T01:08:00.564Z,10.0
2023-05-13T01:12:00.549Z,10.0
2023-05-13T01:16:00.560Z,10.0
2023-05-13T01:20:00.579Z,10.0
2023-05-13T01:24:00.581Z,10.2
2023-05-13T01:28:00.560Z,10.1
2023-05-13T01:32:00.566Z,10.1
2023-05-13T01:36:00.564Z,9.9
2023-05-13T01:40:00.573Z,9.9
2023-05-13T01:44:00.559Z,9.8
2023-05-13T01:48:00.619Z,10.0
2023-05-13T01:52:00.542Z,9.8
2023-05-13T01:56:00.556Z,9.7
2023-05-13T02:00:00.547Z,9.7
2023-05-13T02:04:00.580Z,9.6
2023-05-13T02:08:00.558Z,9.7
2023-05-13T02:12:00.568Z,9.9
2023-05-13T02:16:00.599Z,9.8
2023-05-13T02:20:00.572Z,9.6
2023-05-13T02:24:00.577Z,9.8
2023-05-13T02:28:00.575Z,9.8
2023-05-13T02:32:01.685Z,9.7
2023-05-13T02:36:00.546Z,9.6
2023-05-13T02:40:00.631Z,9.3
2023-05-13T02:44:00.558Z,9.0
2023-05-13T02:48:00.594Z,8.9
2023-05-13T02:52:00.566Z,8.7
2023-05-13T02:56:00.555Z,8.7
2023-05-13T03:00:00.568Z,8.7
2023-05-13T03:04:00.541Z,8.8
2023-05-13T03:08:00.587Z,8.7
2023-05-13T03:12:00.556Z,8.5
2023-05-13T03:16:00.642Z,8.4
2023-05-13T03:20:00.551Z,8.5
2023-05-13T03:24:00.550Z,8.6
2023-05-13T03:28:00.567Z,8.4
2023-05-13T03:32:00.538Z,8.6
2023-05-13T03:36:00.569Z,8.5
2023-05-13T03:40:00.535Z,8.6
2023-05-13T03:44:00.549Z,9.0
2023-05-13T03:48:00.605Z,9.1
2023-05-13T03:52:00.551Z,9.2
2023-05-13T03:56:00.568Z,9.5
2023-05-13T04:00:00.565Z,9.7
2023-05-13T04:04:00.561Z,9.8
2023-05-13T04:08:00.581Z,10.3
2023-05-13T04:12:00.561Z,10.4
2023-05-13T04:16:00.542Z,10.7
2023-05-13T04:20:00.570Z,10.8
2023-05-13T04:24:00.540Z,10.8
2023-05-13T04:28:00.563Z,10.8
2023-05-13T04:32:00.651Z,11.1
2023-05-13T04:36:00.572Z,11.1
2023-05-13T04:40:00.540Z,11.3
2023-05-13T04:44:00.553Z,11.3
2023-05-13T04:48:00.579Z,11.7
2023-05-13T04:52:00.555Z,11.7
2023-05-13T04:56:00.603Z,12.1
2023-05-13T05:00:00.565Z,12.2
2023-05-13T05:04:00.595Z,12.2
2023-05-13T05:08:00.561Z,12.7
2023-05-13T05:12:00.541Z,13.0
2023-05-13T05:16:00.567Z,13.4
2023-05-13T05:20:00.543Z,13.8
2023-05-13T05:24:00.573Z,14.0
2023-05-13T05:28:00.546Z,14.3
2023-05-13T05:32:00.635Z,14.7
2023-05-13T05:36:00.594Z,14.8
2023-05-13T05:40:00.568Z,15.2
2023-05-13T05:44:00.571Z,15.4
2023-05-13T05:48:00.638Z,15.5
2023-05-13T05:52:00.556Z,15.7
2023-05-13T05:56:00.569Z,16.0
2023-05-13T06:00:00.567Z,16.2
2023-05-13T06:04:00.893Z,16.8
2023-05-13T06:08:00.557Z,16.5
2023-05-13T06:12:00.566Z,17.0
2023-05-13T06:16:00.607Z,17.3
2023-05-13T06:20:00.559Z,17.6
2023-05-13T06:24:00.559Z,17.8
2023-05-13T06:28:02.912Z,18.4
2023-05-13T06:32:00.568Z,18.6
2023-05-13T06:36:00.563Z,19.0
2023-05-13T06:40:00.569Z,18.3
2023-05-13T06:44:00.567Z,18.7
2023-05-13T06:48:00.667Z,19.1
2023-05-13T06:52:00.562Z,19.2
2023-05-13T06:56:00.565Z,19.2
2023-05-13T07:00:00.567Z,19.3
2023-05-13T07:04:00.752Z,20.2
2023-05-13T07:08:00.586Z,20.7
2023-05-13T07:12:00.589Z,21.2
2023-05-13T07:16:00.597Z,20.1
2023-05-13T07:20:00.596Z,21.0
2023-05-13T07:24:00.578Z,21.3
2023-05-13T07:28:00.609Z,22.0
2023-05-13T07:32:00.587Z,21.3
2023-05-13T07:36:00.592Z,21.5
2023-05-13T07:40:00.604Z,21.9
2023-05-13T07:44:00.598Z,21.6
2023-05-13T07:48:00.680Z,21.7
2023-05-13T07:52:00.591Z,22.0
2023-05-13T07:56:00.605Z,21.6
2023-05-13T08:00:00.645Z,22.3
2023-05-13T08:04:00.824Z,21.6
2023-05-13T08:08:00.561Z,23.4
2023-05-13T08:12:00.583Z,22.7
2023-05-13T08:16:00.598Z,21.9
2023-05-13T08:20:00.573Z,22.5
2023-05-13T08:24:00.569Z,23.2
2023-05-13T08:28:00.547Z,22.8
2023-05-13T08:32:00.656Z,23.1
2023-05-13T08:36:00.560Z,23.3
2023-05-13T08:40:00.571Z,23.9
2023-05-13T08:44:00.580Z,23.9
2023-05-13T08:48:00.593Z,23.7
2023-05-13T08:52:00.571Z,23.7
2023-05-13T08:56:00.557Z,24.7
2023-05-13T09:00:00.609Z,24.5
2023-05-13T09:04:00.579Z,24.4
2023-05-13T09:08:00.551Z,24.4
2023-05-13T09:12:00.573Z,24.8
2023-05-13T09:16:00.659Z,24.8
2023-05-13T09:20:00.827Z,24.0
2023-05-13T09:24:00.565Z,23.7
2023-05-13T09:28:00.570Z,24.9
2023-05-13T09:32:00.594Z,25.0
2023-05-13T09:36:00.571Z,25.2
2023-05-13T09:40:00.564Z,25.2
2023-05-13T09:44:00.571Z,25.8
2023-05-13T09:48:00.648Z,25.2
2023-05-13T09:52:00.550Z,24.4
2023-05-13T09:56:00.583Z,24.9
2023-05-13T10:00:00.572Z,26.0
2023-05-13T10:04:00.594Z,23.7
2023-05-13T10:08:00.582Z,22.7
2023-05-13T10:12:00.559Z,24.1
2023-05-13T10:16:00.620Z,25.2
2023-05-13T10:20:00.554Z,24.9
2023-05-13T10:24:00.576Z,25.9
2023-05-13T10:28:00.559Z,25.2
2023-05-13T10:32:00.657Z,25.2
2023-05-13T10:36:00.634Z,25.9
2023-05-13T10:40:00.546Z,25.7
2023-05-13T10:44:00.559Z,25.1
2023-05-13T10:48:00.697Z,25.1
2023-05-13T10:52:00.576Z,25.8
2023-05-13T10:56:00.561Z,26.1
2023-05-13T11:00:00.565Z,26.5
2023-05-13T11:04:00.759Z,26.3
2023-05-13T11:08:00.557Z,26.4
2023-05-13T11:12:00.576Z,24.9
2023-05-13T11:16:00.595Z,25.7
2023-05-13T11:20:00.582Z,26.7
2023-05-13T11:24:00.555Z,26.8
2023-05-13T11:28:00.553Z,27.3
2023-05-13T11:32:01.217Z,27.2
2023-05-13T11:36:00.536Z,27.4
2023-05-13T11:40:00.558Z,26.5
2023-05-13T11:44:00.579Z,27.9
2023-05-13T11:48:00.575Z,26.8
2023-05-13T11:52:00.558Z,26.8
2023-05-13T11:56:00.551Z,25.9
2023-05-13T12:00:00.551Z,26.7
2023-05-13T12:04:00.545Z,27.0
2023-05-13T12:08:00.596Z,27.3
2023-05-13T12:12:00.586Z,28.7
2023-05-13T12:16:00.635Z,28.4
2023-05-13T12:20:00.582Z,25.8
2023-05-13T12:24:00.554Z,26.0
2023-05-13T12:28:00.558Z,27.0
2023-05-13T12:32:00.582Z,28.5
2023-05-13T12:36:00.564Z,29.0
2023-05-13T12:40:00.538Z,28.1
2023-05-13T12:44:00.569Z,27.0
2023-05-13T12:48:00.602Z,24.8
2023-05-13T12:52:00.572Z,26.2
2023-05-13T12:56:00.537Z,26.9
2023-05-13T13:00:00.575Z,26.7
2023-05-13T13:04:00.817Z,27.4
2023-05-13T13:08:00.555Z,28.2
2023-05-13T13:12:00.558Z,28.6
2023-05-13T13:16:00.618Z,27.3
2023-05-13T13:20:00.560Z,27.3
2023-05-13T13:24:00.568Z,27.8
2023-05-13T13:28:00.544Z,28.3
2023-05-13T13:32:00.585Z,27.9
2023-05-13T13:36:00.542Z,26.0
2023-05-13T13:40:00.644Z,24.0
2023-05-13T13:44:00.567Z,25.4
2023-05-13T13:48:00.603Z,25.9
2023-05-13T13:52:00.542Z,26.8
2023-05-13T13:56:00.541Z,24.2
2023-05-13T14:00:00.603Z,26.0
2023-05-13T14:04:00.602Z,26.9
2023-05-13T14:08:00.573Z,26.9
2023-05-13T14:12:00.898Z,26.6
2023-05-13T14:16:00.663Z,26.9
2023-05-13T14:20:00.562Z,27.7
2023-05-13T14:24:00.620Z,26.9
2023-05-13T14:28:00.568Z,27.3
2023-05-13T14:32:00.664Z,26.1
2023-05-13T14:36:00.553Z,25.4
2023-05-13T14:40:00.568Z,26.6
2023-05-13T14:44:00.569Z,26.8
2023-05-13T14:48:00.603Z,27.0
2023-05-13T14:52:00.558Z,26.9
2023-05-13T14:56:00.565Z,26.8
2023-05-13T15:00:00.548Z,26.4
2023-05-13T15:04:00.554Z,25.1
2023-05-13T15:08:00.564Z,23.8
2023-05-13T15:12:00.818Z,23.7
2023-05-13T15:16:00.532Z,25.8
2023-05-13T15:20:00.567Z,24.1
2023-05-13T15:24:00.551Z,23.4
2023-05-13T15:28:00.553Z,22.7
2023-05-13T15:32:00.543Z,21.2
2023-05-13T15:36:00.577Z,20.5
2023-05-13T15:40:00.629Z,20.4
2023-05-13T15:44:00.574Z,19.8
2023-05-13T15:48:00.616Z,19.6
2023-05-13T15:52:00.601Z,19.3
2023-05-13T15:56:00.581Z,19.3
2023-05-13T16:00:00.702Z,19.2
2023-05-13T16:04:00.594Z,19.3
2023-05-13T16:08:00.558Z,19.2
2023-05-13T16:12:00.553Z,19.3
2023-05-13T16:16:00.622Z,19.2
2023-05-13T16:20:00.540Z,19.4
2023-05-13T16:24:00.545Z,19.4
2023-05-13T16:28:00.547Z,19.4
2023-05-13T16:32:00.605Z,19.1
2023-05-13T16:36:00.552Z,18.8
2023-05-13T16:40:00.558Z,18.6
2023-05-13T16:44:00.551Z,18.3
2023-05-13T16:48:00.746Z,18.1
2023-05-13T16:52:00.528Z,17.9
2023-05-13T16:56:00.567Z,17.7
2023-05-13T17:00:00.617Z,17.7
2023-05-13T17:04:00.556Z,17.5
2023-05-13T17:08:00.576Z,17.3
2023-05-13T17:12:00.562Z,17.2
2023-05-13T17:16:00.571Z,17.1
2023-05-13T17:20:00.563Z,17.1
2023-05-13T17:24:00.591Z,17.1
2023-05-13T17:28:00.543Z,17.0
2023-05-13T17:32:00.591Z,16.9
2023-05-13T17:36:00.542Z,16.8
2023-05-13T17:40:00.620Z,16.8
2023-05-13T17:44:00.561Z,16.6
2023-05-13T17:48:00.621Z,16.5
2023-05-13T17:52:00.538Z,16.3
2023-05-13T17:56:00.555Z,16.0
2023-05-13T18:00:00.580Z,15.9
2023-05-13T18:04:00.558Z,15.8
2023-05-13T18:08:00.545Z,15.8
2023-05-13T18:12:00.565Z,15.8
2023-05-13T18:16:00.587Z,15.6
2023-05-13T18:20:00.564Z,15.3
2023-05-13T18:24:00.561Z,15.2
2023-05-13T18:28:00.556Z,15.0
2023-05-13T18:32:00.596Z,14.9
2023-05-13T18:36:00.559Z,14.8
2023-05-13T18:40:00.555Z,14.6
2023-05-13T18:44:00.573Z,14.4
2023-05-13T18:48:00.722Z,14.2
2023-05-13T18:52:00.566Z,13.9
2023-05-13T18:56:00.540Z,13.7
2023-05-13T19:00:00.575Z,13.4
2023-05-13T19:04:00.693Z,13.2
2023-05-13T19:08:00.691Z,12.8
2023-05-13T19:12:00.542Z,12.6
2023-05-13T19:16:00.562Z,12.4
2023-05-13T19:20:00.628Z,12.1
2023-05-13T19:24:00.604Z,11.9
2023-05-13T19:28:00.554Z,11.7
2023-05-13T19:32:00.546Z,11.6
2023-05-13T19:36:00.563Z,11.4
2023-05-13T19:40:00.565Z,11.3
2023-05-13T19:44:00.593Z,11.1
2023-05-13T19:48:00.652Z,11.0
2023-05-13T19:52:00.545Z,10.9
2023-05-13T19:56:00.569Z,10.9
2023-05-13T20:00:00.535Z,10.7
2023-05-13T20:04:00.668Z,10.7
2023-05-13T20:08:00.556Z,10.5
2023-05-13T20:12:00.542Z,10.4
2023-05-13T20:16:00.567Z,10.3
2023-05-13T20:20:00.551Z,10.2
2023-05-13T20:24:00.587Z,10.1
2023-05-13T20:28:01.595Z,10.0
2023-05-13T20:32:00.656Z,10.0
2023-05-13T20:36:00.553Z,9.8
2023-05-13T20:40:00.573Z,9.9
2023-05-13T20:44:01.549Z,9.9
2023-05-13T20:48:00.562Z,9.7
2023-05-13T20:52:00.637Z,9.8
2023-05-13T20:56:00.566Z,9.8
2023-05-13T21:00:00.579Z,9.6
2023-05-13T21:04:00.604Z,9.6
2023-05-13T21:08:00.560Z,9.7
2023-05-13T21:12:00.566Z,9.7
2023-05-13T21:16:00.589Z,9.8
2023-05-13T21:20:00.576Z,9.9
2023-05-13T21:24:00.553Z,9.7
2023-05-13T21:28:00.550Z,9.6
2023-05-13T21:32:00.584Z,9.6
2023-05-13T21:36:00.595Z,9.6
2023-05-13T21:40:00.620Z,9.7
2023-05-13T21:44:00.624Z,9.7
2023-05-13T21:48:00.661Z,9.6
2023-05-13T21:52:00.568Z,9.5
2023-05-13T21:56:00.570Z,9.6
2023-05-13T22:00:00.570Z,9.6
2023-05-13T22:04:00.539Z,9.4
2023-05-13T22:08:00.565Z,9.4
2023-05-13T22:12:00.577Z,9.4
2023-05-13T22:16:00.581Z,9.5
2023-05-13T22:20:00.588Z,9.4
2023-05-13T22:24:00.536Z,9.4
2023-05-13T22:28:00.560Z,9.4
2023-05-13T22:32:00.591Z,9.5
2023-05-13T22:36:00.540Z,9.5
2023-05-13T22:40:00.556Z,9.5
2023-05-13T22:44:00.575Z,9.4
2023-05-13T22:48:00.615Z,9.3
2023-05-13T22:52:00.555Z,9.1
2023-05-13T22:56:00.571Z,9.3
2023-05-13T23:00:00.603Z,9.2
2023-05-13T23:04:00.663Z,9.1
2023-05-13T23:08:00.550Z,9.1
2023-05-13T23:12:00.567Z,9.1
2023-05-13T23:16:00.629Z,9.1
2023-05-13T23:20:00.581Z,9.0
2023-05-13T23:24:00.584Z,8.9
2023-05-13T23:28:00.559Z,8.7
2023-05-13T23:32:00.636Z,8.7
2023-05-13T23:36:00.544Z,8.8
2023-05-13T23:40:00.560Z,8.7
2023-05-13T23:44:00.545Z,8.5
2023-05-13T23:48:00.678Z,8.5
2023-05-13T23:52:00.551Z,8.4
2023-05-13T23:56:00.557Z,8.4
